Time;durP1;ratioP1;P1;durP2;ratioP2;P2;SDS_P1;SDS_P2;PMS_P1;PMS_P2;Temp;Humidity;BMP_temperature;BMP_pressure;BME280_temperature;BME280_humidity;BME280_pressure;Samples;Min_cycle;Max_cycle;Signal;HPM_P1;HPM_P2
2022/11/05 00:10:53;;;;;;;25.73;19.08;;;;;;;4.06;100.00;101582.63;5205508;28;20124;-65
2022/11/05 00:16:42;;;;;;;19.60;17.80;;;;;;;4.00;100.00;101590.63;5205537;28;20044;-66
2022/11/05 00:19:09;;;;;;;17.08;15.45;;;;;;;3.92;100.00;101599.63;5205256;28;20036;-66
2022/11/05 00:27:17;;;;;;;18.85;15.77;;;;;;;3.82;100.00;101607.13;5205429;28;20063;-66
2022/11/05 00:29:47;;;;;;;19.63;17.73;;;;;;;3.78;100.00;101603.19;5204015;28;20049;-65
2022/11/05 00:32:18;;;;;;;15.20;14.02;;;;;;;3.82;100.00;101623.16;5203741;28;20036;-65
2022/11/05 00:34:48;;;;;;;17.23;15.60;;;;;;;3.70;100.00;101614.03;5203654;28;20021;-65
2022/11/05 00:37:19;;;;;;;17.60;16.08;;;;;;;3.77;100.00;101622.91;5203753;28;20014;-64
2022/11/05 00:39:49;;;;;;;18.38;16.35;;;;;;;3.75;100.00;101622.31;5203554;28;20021;-65
2022/11/05 00:45:09;;;;;;;18.10;16.45;;;;;;;3.40;100.00;101586.66;5208805;28;20243;-65
2022/11/05 00:50:29;;;;;;;16.67;15.45;;;;;;;3.65;100.00;101643.16;5208754;28;20045;-64
2022/11/05 00:53:00;;;;;;;17.17;15.95;;;;;;;3.66;100.00;101644.81;5207692;28;20018;-64
2022/11/05 00:55:37;;;;;;;18.40;16.77;;;;;;;3.70;100.00;101648.75;5201909;28;20042;-66
2022/11/05 00:58:10;;;;;;;17.63;16.23;;;;;;;3.72;100.00;101647.56;5187630;28;20037;-64
2022/11/05 01:00:43;;;;;;;17.65;15.98;;;;;;;3.71;100.00;101647.75;5186801;28;20030;-64
2022/11/05 01:03:16;;;;;;;18.17;16.42;;;;;;;3.77;100.00;101656.81;5186779;28;20034;-64
2022/11/05 01:05:49;;;;;;;17.10;15.98;;;;;;;3.67;100.00;101649.13;5186617;28;20467;-64
2022/11/05 01:08:22;;;;;;;18.15;16.35;;;;;;;3.70;100.00;101662.13;5187008;28;20500;-64
2022/11/05 01:10:55;;;;;;;17.45;16.10;;;;;;;3.67;100.00;101667.84;5186598;28;20120;-64
2022/11/05 01:13:29;;;;;;;15.27;14.30;;;;;;;3.63;100.00;101666.56;5186570;28;20026;-64
2022/11/05 01:16:05;;;;;;;15.50;14.02;;;;;;;3.43;100.00;101641.50;5186841;28;20083;-65
2022/11/05 01:18:37;;;;;;;17.02;15.82;;;;;;;3.62;100.00;101673.75;5186674;28;20056;-66
2022/11/05 01:21:12;;;;;;;16.38;14.82;;;;;;;3.58;100.00;101683.16;5186847;28;20187;-63
2022/11/05 01:23:43;;;;;;;17.85;16.35;;;;;;;3.38;100.00;101648.25;5186415;28;20042;-65
2022/11/05 01:26:14;;;;;;;19.80;14.35;;;;;;;3.46;100.00;101666.00;5186626;28;20026;-64
2022/11/05 01:28:48;;;;;;;15.63;14.30;;;;;;;3.47;100.00;101669.44;5186307;28;20034;-64
2022/11/05 01:31:20;;;;;;;15.55;14.27;;;;;;;3.51;100.00;101684.91;5187483;28;20029;-65
2022/11/05 01:33:51;;;;;;;14.07;12.90;;;;;;;3.47;100.00;101672.94;5186298;28;20112;-66
2022/11/05 01:36:21;;;;;;;15.63;14.40;;;;;;;3.22;100.00;101637.78;5186059;28;20172;-65
2022/11/05 01:38:52;;;;;;;14.80;13.63;;;;;;;3.46;100.00;101678.50;5186237;28;20026;-65
2022/11/05 01:41:22;;;;;;;18.65;15.32;;;;;;;3.42;100.00;101683.41;5185941;28;20026;-63
2022/11/05 01:43:55;;;;;;;12.85;11.65;;;;;;;3.34;100.00;101672.81;5185826;28;20045;-64
2022/11/05 01:46:34;;;;;;;13.65;12.27;;;;;;;3.36;100.00;101662.78;5186242;28;20115;-65
2022/11/05 01:49:19;;;;;;;14.30;13.18;;;;;;;3.16;100.00;101635.88;5186409;28;20026;-65
2022/11/05 01:51:50;;;;;;;13.40;12.48;;;;;;;3.31;100.00;101667.84;5185917;28;20038;-64
2022/11/05 01:54:26;;;;;;;11.55;10.80;;;;;;;3.31;100.00;101670.53;5185664;28;20371;-64
2022/11/05 01:57:06;;;;;;;12.05;11.02;;;;;;;3.30;100.00;101676.88;5215054;23;20539;-67
2022/11/05 01:59:42;;;;;;;14.75;12.70;;;;;;;3.25;100.00;101668.59;5247210;28;20383;-65
2022/11/05 02:02:12;;;;;;;14.77;13.73;;;;;;;3.25;100.00;101668.59;5246219;28;20089;-67
2022/11/05 02:05:01;;;;;;;13.70;12.70;;;;;;;3.25;100.00;101668.59;5245324;28;20028;-67
2022/11/05 02:07:32;;;;;;;17.60;15.73;;;;;;;3.25;100.00;101673.94;5245770;28;20559;-67
2022/11/05 02:10:09;;;;;;;14.82;13.68;;;;;;;3.24;100.00;101677.63;5245585;28;20077;-67
2022/11/05 02:12:44;;;;;;;13.02;12.18;;;;;;;3.21;100.00;101668.16;5246337;28;20043;-68
2022/11/05 02:15:23;;;;;;;13.23;12.32;;;;;;;3.23;100.00;101671.47;5245813;28;20040;-67
2022/11/05 02:18:26;;;;;;;12.57;11.70;;;;;;;3.21;100.00;101678.00;5246375;28;20016;-67
2022/11/05 02:21:31;;;;;;;14.32;13.30;;;;;;;3.24;100.00;101682.97;5213003;28;20064;-68
2022/11/05 02:24:16;;;;;;;11.63;10.88;;;;;;;3.24;100.00;101686.47;5246752;28;20024;-68
2022/11/05 02:27:14;;;;;;;13.07;12.15;;;;;;;3.25;100.00;101680.09;5247229;28;20094;-67
2022/11/05 02:30:03;;;;;;;13.75;12.95;;;;;;;3.23;100.00;101682.13;5246702;28;20429;-68
2022/11/05 02:32:46;;;;;;;13.43;12.60;;;;;;;3.20;100.00;101679.84;5246106;28;20039;-66
2022/11/05 02:35:30;;;;;;;15.32;14.15;;;;;;;3.19;100.00;101675.50;5245959;28;20499;-66
2022/11/05 02:38:08;;;;;;;15.27;14.27;;;;;;;3.20;100.00;101674.50;5246131;28;20032;-67
2022/11/05 02:40:42;;;;;;;15.25;14.00;;;;;;;3.16;100.00;101681.25;5246725;28;20035;-66
2022/11/05 02:43:18;;;;;;;13.50;12.55;;;;;;;3.14;100.00;101680.63;5245737;28;20128;-66
2022/11/05 02:46:07;;;;;;;16.05;14.68;;;;;;;3.13;100.00;101676.28;5244211;28;20024;-66
2022/11/05 02:49:00;;;;;;;15.27;14.05;;;;;;;3.14;100.00;101672.59;5243427;28;20143;-66
2022/11/05 02:51:41;;;;;;;13.88;12.82;;;;;;;3.16;100.00;101680.44;5244695;28;20078;-65
2022/11/05 02:54:15;;;;;;;14.60;13.48;;;;;;;3.16;100.00;101673.25;5243037;28;20066;-66
2022/11/05 02:56:50;;;;;;;14.00;12.70;;;;;;;3.18;100.00;101675.69;5242941;28;20032;-65
2022/11/05 02:59:20;;;;;;;14.70;13.15;;;;;;;3.15;100.00;101668.94;5243090;28;20037;-65
2022/11/05 03:01:52;;;;;;;15.80;14.52;;;;;;;3.15;100.00;101674.25;5242941;28;20422;-65
2022/11/05 03:04:23;;;;;;;14.02;13.02;;;;;;;3.17;100.00;101679.41;5242106;28;20476;-65
2022/11/05 03:07:37;;;;;;;15.07;13.60;;;;;;;3.16;100.00;101673.25;5243050;28;20021;-66
2022/11/05 03:10:36;;;;;;;13.80;12.82;;;;;;;3.17;100.00;101671.41;5243219;28;20082;-65
2022/11/05 03:13:16;;;;;;;15.25;13.85;;;;;;;3.13;100.00;101670.94;5230035;28;20029;-64
2022/11/05 03:15:51;;;;;;;16.45;13.73;;;;;;;3.12;100.00;101673.81;5244420;28;20035;-64
2022/11/05 03:18:45;;;;;;;16.98;15.38;;;;;;;3.10;100.00;101665.16;5244861;28;20397;-64
2022/11/05 03:21:37;;;;;;;13.30;12.27;;;;;;;3.07;100.00;101677.03;5242905;28;20024;-65
2022/11/05 03:24:20;;;;;;;14.68;13.15;;;;;;;3.07;100.00;101682.38;5244503;28;20119;-65
2022/11/05 03:26:59;;;;;;;16.13;14.18;;;;;;;3.12;100.00;101685.31;5243736;28;20016;-66
2022/11/05 03:29:37;;;;;;;15.30;14.02;;;;;;;3.05;100.00;101674.53;5243380;28;20047;-66
2022/11/05 03:32:10;;;;;;;13.80;12.43;;;;;;;3.11;100.00;101675.66;5244542;28;20160;-66
2022/11/05 03:34:46;;;;;;;15.40;14.07;;;;;;;3.07;100.00;101684.22;5243576;28;20454;-65
2022/11/05 03:37:19;;;;;;;14.80;13.50;;;;;;;3.03;100.00;101673.06;5243886;28;20452;-65
2022/11/05 03:39:58;;;;;;;13.05;12.10;;;;;;;2.96;100.00;101677.50;5243041;28;20381;-66
2022/11/05 03:42:33;;;;;;;12.00;11.15;;;;;;;2.95;100.00;101679.34;5243810;28;20165;-66
2022/11/05 03:45:15;;;;;;;13.55;12.73;;;;;;;2.92;100.00;101689.53;5243410;28;20055;-65
2022/11/05 03:47:49;;;;;;;15.82;12.52;;;;;;;2.86;100.00;101685.81;5243848;28;20141;-65
2022/11/05 03:50:44;;;;;;;16.67;13.25;;;;;;;2.84;100.00;101684.34;5243871;28;20021;-65
2022/11/05 03:53:20;;;;;;;15.07;13.82;;;;;;;2.79;100.00;101670.72;5236342;28;20032;-65
2022/11/05 03:56:00;;;;;;;12.43;11.63;;;;;;;2.82;100.00;101667.69;5243726;28;20021;-66
2022/11/05 03:58:31;;;;;;;14.45;13.30;;;;;;;2.83;100.00;101675.50;5244049;28;20078;-66
2022/11/05 04:01:02;;;;;;;14.15;13.02;;;;;;;2.87;100.00;101674.13;5242596;28;20032;-66
2022/11/05 04:03:35;;;;;;;13.82;12.73;;;;;;;2.77;100.00;101654.06;5242662;28;20033;-66
2022/11/05 04:14:34;;;;;;;14.82;13.80;;;;;;;2.89;100.00;101682.75;5244677;28;20098;-66
2022/11/05 04:17:10;;;;;;;15.63;14.23;;;;;;;2.88;100.00;101689.13;5247436;28;20033;-65
2022/11/05 04:25:23;;;;;;;15.15;13.65;;;;;;;2.74;100.00;101686.44;5249614;28;20069;-65
2022/11/05 04:27:59;;;;;;;13.40;12.40;;;;;;;2.77;100.00;101694.91;5248412;28;20057;-64
2022/11/05 04:30:29;;;;;;;13.80;12.70;;;;;;;2.75;100.00;101709.44;5248432;28;20491;-64
2022/11/05 04:33:12;;;;;;;14.63;12.77;;;;;;;2.73;100.00;101709.63;5248234;28;20036;-65
2022/11/05 04:35:43;;;;;;;16.52;15.13;;;;;;;2.68;100.00;101715.50;5248423;28;20178;-65
2022/11/05 04:38:16;;;;;;;13.70;12.75;;;;;;;2.62;100.00;101710.88;5249158;28;20032;-64
2022/11/05 04:40:47;;;;;;;15.88;14.32;;;;;;;2.63;100.00;101709.88;5247447;28;20454;-65
2022/11/05 04:43:18;;;;;;;15.32;13.93;;;;;;;2.63;100.00;101712.53;5248776;28;20024;-65
2022/11/05 04:45:48;;;;;;;15.68;14.30;;;;;;;2.63;100.00;101704.53;5246881;28;20029;-64
2022/11/05 04:48:19;;;;;;;13.57;12.63;;;;;;;2.56;100.00;101708.97;5246501;28;20031;-67
2022/11/05 04:50:49;;;;;;;15.90;14.18;;;;;;;2.57;100.00;101717.81;5246062;28;20027;-64
2022/11/05 04:53:20;;;;;;;16.85;13.63;;;;;;;2.52;100.00;101718.34;5245894;28;20036;-67
2022/11/05 04:55:50;;;;;;;15.80;14.30;;;;;;;2.48;100.00;101711.72;5245515;28;20021;-65
2022/11/05 04:58:21;;;;;;;14.90;13.90;;;;;;;2.50;100.00;101714.19;5245620;28;20032;-67
2022/11/05 05:00:51;;;;;;;16.08;14.73;;;;;;;2.42;100.00;101709.78;5245132;28;20116;-66
2022/11/05 05:03:22;;;;;;;18.02;16.15;;;;;;;2.45;100.00;101714.75;5245436;28;20024;-66
2022/11/05 05:05:53;;;;;;;15.98;14.77;;;;;;;2.49;100.00;101716.03;5246097;28;20128;-66
2022/11/05 05:08:23;;;;;;;17.63;16.20;;;;;;;2.52;100.00;101721.00;5245836;28;20062;-65
2022/11/05 05:10:53;;;;;;;15.98;14.70;;;;;;;2.53;100.00;101717.34;5246519;28;20016;-65
2022/11/05 05:13:24;;;;;;;20.80;17.02;;;;;;;2.55;100.00;101728.66;5247224;28;20395;-65
2022/11/05 05:15:54;;;;;;;17.92;16.45;;;;;;;2.58;100.00;101719.47;5246908;28;20063;-65
2022/11/05 05:18:25;;;;;;;19.02;17.23;;;;;;;2.63;100.00;101717.88;5247397;28;20493;-66
2022/11/05 05:23:47;;;;;;;18.73;17.42;;;;;;;2.88;100.00;101736.31;5249325;28;20047;-64
2022/11/05 05:26:17;;;;;;;18.88;17.35;;;;;;;3.02;100.00;101738.13;5246024;28;20017;-65
2022/11/05 05:28:47;;;;;;;17.58;16.08;;;;;;;3.16;100.00;101742.63;5244722;28;20028;-66
2022/11/05 05:31:20;;;;;;;20.30;18.65;;;;;;;3.26;100.00;101735.16;5245247;28;20442;-66
2022/11/05 05:33:54;;;;;;;20.33;18.52;;;;;;;3.33;100.00;101736.06;5244995;28;20033;-66
2022/11/05 05:36:24;;;;;;;20.13;18.05;;;;;;;3.37;100.00;101732.00;5246029;28;20456;-66
2022/11/05 05:38:55;;;;;;;20.48;18.88;;;;;;;3.41;100.00;101721.78;5245579;28;20016;-66
2022/11/05 05:41:25;;;;;;;20.70;19.08;;;;;;;3.49;100.00;101734.19;5246238;28;20024;-66
2022/11/05 05:43:55;;;;;;;17.92;15.93;;;;;;;3.52;100.00;101728.47;5245347;28;20188;-66
2022/11/05 05:46:26;;;;;;;19.00;17.08;;;;;;;3.54;100.00;101729.09;5246783;28;20028;-65
2022/11/05 05:48:57;;;;;;;19.60;17.90;;;;;;;3.51;100.00;101732.16;5245762;28;20016;-65
2022/11/05 05:51:27;;;;;;;23.05;20.35;;;;;;;3.46;100.00;101745.25;5245951;28;20024;-65
2022/11/05 05:53:57;;;;;;;19.25;17.52;;;;;;;3.38;100.00;101740.84;5246065;28;20034;-65
2022/11/05 05:56:28;;;;;;;15.80;14.38;;;;;;;3.30;100.00;101744.44;5249099;28;20033;-65
2022/11/05 05:58:58;;;;;;;19.23;17.75;;;;;;;3.20;100.00;101735.88;5246007;28;20132;-65
2022/11/05 06:01:29;;;;;;;18.73;17.13;;;;;;;3.09;100.00;101728.38;5244633;28;20040;-65
2022/11/05 06:03:59;;;;;;;18.35;16.58;;;;;;;3.10;100.00;101737.22;5244253;28;20035;-65
2022/11/05 06:06:30;;;;;;;18.48;16.92;;;;;;;3.07;100.00;101749.06;5244118;28;20550;-66
2022/11/05 06:09:07;;;;;;;18.35;16.45;;;;;;;2.98;100.00;101743.00;5244311;28;20484;-69
2022/11/05 06:11:38;;;;;;;18.08;16.33;;;;;;;2.90;100.00;101740.41;5244147;28;20040;-66
2022/11/05 06:14:11;;;;;;;18.85;16.33;;;;;;;2.88;100.00;101749.63;5245305;28;20087;-66
2022/11/05 06:16:41;;;;;;;17.92;16.23;;;;;;;2.86;100.00;101743.66;5244327;28;20021;-66
2022/11/05 06:19:11;;;;;;;19.60;17.55;;;;;;;2.88;100.00;101752.31;5245353;28;20361;-66
2022/11/05 06:21:42;;;;;;;20.60;18.50;;;;;;;2.87;100.00;101751.47;5245586;28;20447;-66
2022/11/05 06:24:13;;;;;;;19.45;17.75;;;;;;;2.67;100.00;101723.69;5243900;28;20468;-67
2022/11/05 06:26:43;;;;;;;18.30;16.83;;;;;;;2.83;100.00;101750.19;5244116;28;20020;-67
2022/11/05 06:29:14;;;;;;;20.15;18.65;;;;;;;2.78;100.00;101743.75;5233847;28;20025;-66
2022/11/05 06:31:44;;;;;;;20.52;18.83;;;;;;;2.77;100.00;101748.25;5235812;28;20032;-65
2022/11/05 06:34:15;;;;;;;19.23;17.50;;;;;;;2.56;100.00;101727.63;5243934;28;20032;-66
2022/11/05 06:36:45;;;;;;;17.67;16.48;;;;;;;2.72;100.00;101756.78;5243899;28;20447;-68
2022/11/05 06:39:16;;;;;;;21.17;18.15;;;;;;;2.70;100.00;101755.31;5242114;28;20035;-68
2022/11/05 06:41:46;;;;;;;18.77;17.05;;;;;;;2.71;100.00;101763.13;5245064;28;20028;-66
2022/11/05 06:44:16;;;;;;;22.08;19.52;;;;;;;2.76;100.00;101759.09;5243376;28;20032;-66
2022/11/05 06:46:47;;;;;;;21.70;19.50;;;;;;;2.77;100.00;101756.25;5243701;28;20361;-66
2022/11/05 06:49:18;;;;;;;21.58;19.70;;;;;;;2.75;100.00;101768.94;5243575;28;20029;-66
2022/11/05 06:51:48;;;;;;;19.27;17.88;;;;;;;2.60;100.00;101747.56;5243484;28;20028;-66
2022/11/05 06:54:18;;;;;;;19.90;17.98;;;;;;;2.70;100.00;101757.97;5243559;28;20077;-66
2022/11/05 06:56:49;;;;;;;20.35;18.75;;;;;;;2.71;100.00;101762.31;5243618;28;20055;-66
2022/11/05 06:59:19;;;;;;;22.10;20.02;;;;;;;2.64;100.00;101756.88;5243386;28;20456;-66
2022/11/05 07:01:50;;;;;;;19.58;18.10;;;;;;;2.70;100.00;101765.97;5243139;28;20047;-65
2022/11/05 07:04:20;;;;;;;26.23;20.38;;;;;;;2.78;100.00;101775.75;5243498;28;20409;-65
2022/11/05 07:06:51;;;;;;;21.02;19.00;;;;;;;2.80;100.00;101781.72;5243547;28;20024;-67
2022/11/05 07:09:22;;;;;;;18.17;16.45;;;;;;;2.81;100.00;101786.06;5243529;28;20036;-65
2022/11/05 07:11:52;;;;;;;18.25;16.85;;;;;;;2.81;100.00;101786.88;5242902;28;20126;-65
2022/11/05 07:14:23;;;;;;;18.85;17.30;;;;;;;2.79;100.00;101796.91;5243119;28;20044;-66
2022/11/05 07:16:53;;;;;;;22.35;20.40;;;;;;;2.81;100.00;101778.06;5244632;28;20028;-66
2022/11/05 07:19:23;;;;;;;18.92;16.95;;;;;;;2.87;100.00;101780.81;5244401;28;20020;-67
2022/11/05 07:21:54;;;;;;;21.35;19.55;;;;;;;2.94;100.00;101792.41;5245477;28;20021;-66
2022/11/05 07:24:25;;;;;;;20.20;18.77;;;;;;;2.99;100.00;101795.34;5244526;28;20047;-66
2022/11/05 07:26:55;;;;;;;19.02;17.63;;;;;;;3.04;100.00;101800.97;5243733;28;20044;-66
2022/11/05 07:29:25;;;;;;;20.42;18.52;;;;;;;3.10;100.00;101799.41;5243642;28;20013;-65
2022/11/05 07:31:56;;;;;;;20.73;19.20;;;;;;;3.17;100.00;101800.34;5243307;28;20036;-65
2022/11/05 07:34:26;;;;;;;21.38;19.42;;;;;;;3.10;100.00;101777.25;5244257;28;20028;-68
2022/11/05 07:36:57;;;;;;;20.23;18.52;;;;;;;3.28;100.00;101799.84;5244770;28;20065;-67
2022/11/05 07:39:27;;;;;;;23.75;21.38;;;;;;;3.34;100.00;101795.63;5239111;28;20045;-66
2022/11/05 07:41:58;;;;;;;23.15;21.17;;;;;;;3.31;100.00;101791.47;5222782;28;20062;-66
2022/11/05 07:44:28;;;;;;;24.48;22.35;;;;;;;3.51;100.00;101812.25;5222154;28;20116;-67
2022/11/05 07:46:59;;;;;;;25.67;22.83;;;;;;;3.46;100.00;101798.66;5222092;28;20086;-66
2022/11/05 07:49:29;;;;;;;25.52;21.77;;;;;;;3.63;100.00;101814.28;5221641;28;20017;-66
2022/11/05 07:51:59;;;;;;;24.50;22.02;;;;;;;3.71;100.00;101824.03;5215001;28;20025;-66
2022/11/05 07:54:30;;;;;;;23.30;20.95;;;;;;;3.76;100.00;101820.78;5241841;28;20047;-66
2022/11/05 07:57:00;;;;;;;27.88;25.00;;;;;;;3.83;100.00;101819.84;5242152;28;20441;-65
2022/11/05 07:59:31;;;;;;;33.33;30.45;;;;;;;3.91;100.00;101818.91;5312347;22;20037;-87
2022/11/05 08:02:03;;;;;;;26.02;23.40;;;;;;;4.00;100.00;101823.13;5233732;28;20060;-87
2022/11/05 08:04:33;;;;;;;23.38;21.33;;;;;;;3.68;100.00;101757.63;5223390;28;20037;-85
2022/11/05 08:07:03;;;;;;;26.13;23.33;;;;;;;3.99;100.00;101808.94;5207098;28;20028;-86
2022/11/05 08:09:34;;;;;;;22.42;20.40;;;;;;;3.57;100.00;101736.75;5206424;28;20018;-87
2022/11/05 08:12:05;;;;;;;25.77;23.45;;;;;;;3.98;100.00;101798.44;5196894;28;20018;-87
2022/11/05 08:14:35;;;;;;;29.25;21.10;;;;;;;3.75;100.00;101747.84;5196761;28;20041;-86
2022/11/05 08:17:06;;;;;;;33.80;22.35;;;;;;;4.05;100.00;101794.78;5197219;28;20052;-86
2022/11/05 08:19:36;;;;;;;22.67;20.73;;;;;;;4.38;100.00;101810.34;5199434;28;20026;-85
2022/11/05 08:22:07;;;;;;;23.60;21.35;;;;;;;4.44;100.00;101817.59;5200106;28;20394;-85
2022/11/05 08:24:37;;;;;;;24.08;22.02;;;;;;;4.51;100.00;101818.50;5198446;28;20113;-85
2022/11/05 08:27:07;;;;;;;26.13;19.75;;;;;;;4.60;100.00;101806.63;5198630;28;20029;-83
2022/11/05 08:29:38;;;;;;;22.67;20.55;;;;;;;4.41;100.00;101788.56;5199828;28;20094;-85
2022/11/05 08:32:08;;;;;;;24.73;20.48;;;;;;;4.73;100.00;101797.88;5199740;28;20387;-85
2022/11/05 08:34:39;;;;;;;20.65;18.88;;;;;;;4.65;100.00;101773.94;5198305;28;20033;-85
2022/11/05 08:37:09;;;;;;;32.65;21.13;;;;;;;4.54;100.00;101751.25;5200286;28;20037;-85
2022/11/05 08:39:39;;;;;;;23.40;20.88;;;;;;;4.68;100.00;101754.81;5201541;28;20057;-84
2022/11/05 08:42:10;;;;;;;25.55;23.20;;;;;;;4.67;100.00;101740.63;5205842;28;20022;-86
2022/11/05 08:44:40;;;;;;;23.25;19.77;;;;;;;5.34;100.00;101811.44;5204318;28;20044;-84
2022/11/05 08:47:11;;;;;;;27.80;23.58;;;;;;;5.10;100.00;101764.56;5203773;28;20030;-84
2022/11/05 08:49:41;;;;;;;24.83;21.83;;;;;;;5.33;100.00;101775.78;5202074;28;20033;-85
2022/11/05 08:52:12;;;;;;;24.25;19.77;;;;;;;5.48;100.00;101781.03;5201392;28;20263;-87
2022/11/05 08:54:43;;;;;;;23.65;19.00;;;;;;;5.65;100.00;101790.34;5199590;28;20519;-86
2022/11/05 08:57:13;;;;;;;27.88;21.65;;;;;;;5.46;100.00;101734.88;5196752;28;20021;-85
2022/11/05 08:59:44;;;;;;;19.77;18.30;;;;;;;5.93;100.00;101784.91;5196417;28;20037;-86
2022/11/05 09:02:14;;;;;;;25.13;21.88;;;;;;;6.21;100.00;101791.97;5199164;28;20026;-85
2022/11/05 09:04:45;;;;;;;23.92;21.98;;;;;;;6.58;100.00;101822.75;5200875;28;20033;-86
2022/11/05 09:07:15;;;;;;;21.42;19.38;;;;;;;6.32;100.00;101759.19;5203280;28;20030;-86
2022/11/05 09:09:46;;;;;;;20.80;18.73;;;;;;;6.46;100.00;101787.66;5202078;28;20026;-86
2022/11/05 09:12:16;;;;;;;24.58;19.63;;;;;;;6.69;100.00;101797.97;5202150;28;20018;-85
2022/11/05 09:14:47;;;;;;;20.13;17.55;;;;;;;6.77;100.00;101801.28;5200772;28;20030;-84
2022/11/05 09:17:20;;;;;;;22.08;17.83;;;;;;;6.82;100.00;101802.50;5200823;28;20022;-83
2022/11/05 09:19:50;;;;;;;15.10;13.90;;;;;;;6.72;100.00;101754.59;5199023;28;20030;-84
2022/11/05 09:22:21;;;;;;;18.73;15.65;;;;;;;7.16;100.00;101817.53;5199886;28;20030;-86
2022/11/05 09:24:51;;;;;;;16.52;15.23;;;;;;;6.96;100.00;101798.75;5199298;28;20044;-85
2022/11/05 09:27:23;;;;;;;21.77;16.00;;;;;;;6.62;100.00;101738.94;5202072;28;20033;-85
2022/11/05 09:29:53;;;;;;;18.08;16.20;;;;;;;7.20;100.00;101814.22;5202794;28;20084;-85
2022/11/05 09:32:23;;;;;;;16.30;14.73;;;;;;;6.84;100.00;101782.47;5203831;28;20021;-85
2022/11/05 09:34:54;;;;;;;17.10;14.88;;;;;;;7.05;100.00;101813.63;5201675;28;20048;-85
2022/11/05 09:37:25;;;;;;;16.13;14.10;;;;;;;7.24;100.00;101825.34;5202322;28;20432;-85
2022/11/05 09:39:56;;;;;;;19.90;14.98;;;;;;;6.99;100.00;101790.28;5201559;28;20093;-84
2022/11/05 09:42:42;;;;;;;15.23;13.85;;;;;;;7.25;100.00;101816.25;5202736;28;20053;-85
2022/11/05 09:45:25;;;;;;;16.55;14.80;;;;;;;7.24;100.00;101799.31;5203439;28;20117;-85
2022/11/05 09:48:02;;;;;;;15.32;13.82;;;;;;;7.59;100.00;101833.94;5217115;28;20419;-85
2022/11/05 09:50:39;;;;;;;18.08;16.35;;;;;;;7.32;100.00;101772.22;5221551;28;20117;-85
2022/11/05 09:53:14;;;;;;;17.10;15.00;;;;;;;7.71;100.00;101821.50;5223076;28;20030;-85
2022/11/05 09:55:54;;;;;;;15.60;14.32;;;;;;;7.93;100.00;101824.69;5222333;28;20017;-85
2022/11/05 09:58:35;;;;;;;13.90;12.48;;;;;;;8.01;100.00;101819.91;5221738;28;20037;-84
2022/11/05 10:01:11;;;;;;;15.55;14.00;;;;;;;7.79;100.00;101791.69;5222818;28;20060;-85
2022/11/05 10:03:46;;;;;;;13.40;12.15;;;;;;;7.93;100.00;101793.25;5220988;28;20087;-86
2022/11/05 10:06:20;;;;;;;12.85;11.82;;;;;;;8.12;100.00;101808.44;5222847;28;20052;-84
2022/11/05 10:09:20;;;;;;;13.68;12.02;;;;;;;8.34;100.00;101821.59;5222055;28;20132;-85
2022/11/05 10:12:03;;;;;;;13.95;12.63;;;;;;;8.16;100.00;101783.78;5215472;28;20044;-85
2022/11/05 10:14:39;;;;;;;16.58;11.75;;;;;;;8.58;100.00;101828.88;5211736;28;20033;-84
2022/11/05 10:17:24;;;;;;;14.65;12.32;;;;;;;8.69;100.00;101822.75;5210865;28;20503;-86
2022/11/05 10:20:15;;;;;;;12.02;11.07;;;;;;;8.85;100.00;101817.88;5210836;28;20075;-85
2022/11/05 10:22:47;;;;;;;11.73;10.63;;;;;;;8.71;100.00;101791.03;5194217;28;20044;-86
2022/11/05 10:25:20;;;;;;;12.20;11.10;;;;;;;8.73;100.00;101785.44;5215571;28;20021;-83
2022/11/05 10:27:53;;;;;;;11.40;10.35;;;;;;;8.74;100.00;101774.44;5217848;28;20021;-85
2022/11/05 10:30:24;;;;;;;17.75;11.77;;;;;;;9.21;100.00;101830.59;5209973;28;20028;-85
2022/11/05 10:32:58;;;;;;;11.32;10.32;;;;;;;9.23;100.00;101823.09;5209683;28;20554;-86
2022/11/05 10:35:30;;;;;;;12.68;10.30;;;;;;;9.05;100.00;101792.38;5208741;28;20603;-85
2022/11/05 10:38:01;;;;;;;11.32;10.38;;;;;;;9.17;100.00;101814.03;5210897;28;20081;-84
2022/11/05 10:41:08;;;;;;;10.57;9.77;;;;;;;9.25;100.00;101829.88;5209718;28;20053;-84
2022/11/05 10:43:48;;;;;;;10.18;9.27;;;;;;;9.09;100.00;101808.94;5208952;28;20045;-84
2022/11/05 10:46:40;;;;;;;10.88;9.82;;;;;;;9.19;100.00;101822.72;5210643;28;20033;-86
2022/11/05 10:49:29;;;;;;;10.77;9.57;;;;;;;9.17;100.00;101824.81;5209529;28;20030;-86
2022/11/05 10:52:09;;;;;;;11.10;9.38;;;;;;;9.01;100.00;101801.94;5212695;28;20450;-85
2022/11/05 10:54:40;;;;;;;10.82;7.65;;;;;;;9.06;100.00;101798.59;5210669;28;20021;-86
2022/11/05 10:57:33;;;;;;;8.00;7.40;;;;;;;9.33;100.00;101807.22;5211082;28;20031;-85
2022/11/05 11:00:13;;;;;;;7.75;7.05;;;;;;;9.45;100.00;101808.94;5211583;28;20041;-89
2022/11/05 11:02:58;;;;;;;10.10;9.10;;;;;;;9.62;100.00;101806.44;5213444;28;20025;-89
2022/11/05 11:05:31;;;;;;;9.00;8.13;;;;;;;9.80;100.00;101806.44;5211169;28;20025;-89
2022/11/05 11:08:20;;;;;;;8.77;7.28;;;;;;;9.40;100.00;101735.19;5211686;28;20037;-88
2022/11/05 11:10:55;;;;;;;10.83;6.03;;;;;;;10.07;100.00;101804.19;5211862;28;20056;-87
2022/11/05 11:13:47;;;;;;;7.07;6.57;;;;;;;9.92;100.00;101755.22;5208981;28;20025;-88
2022/11/05 11:16:21;;;;;;;7.88;6.22;;;;;;;9.98;100.00;101764.28;5209017;28;20107;-88
2022/11/05 11:18:59;;;;;;;7.85;7.25;;;;;;;10.30;100.00;101797.25;5211617;28;20049;-87
2022/11/05 11:21:31;;;;;;;8.38;6.25;;;;;;;10.37;100.00;101797.97;5209889;28;20025;-87
2022/11/05 11:24:08;;;;;;;7.20;6.55;;;;;;;9.91;100.00;101712.28;5209229;28;20091;-87
2022/11/05 11:26:39;;;;;;;7.35;6.75;;;;;;;10.13;100.00;101743.88;5210381;28;20021;-88
2022/11/05 11:29:34;;;;;;;6.13;5.60;;;;;;;10.52;100.00;101782.13;5210766;28;20036;-88
2022/11/05 11:32:13;;;;;;;7.10;6.50;;;;;;;10.42;100.00;101757.56;5212182;28;20036;-88
2022/11/05 11:34:47;;;;;;;6.57;6.10;;;;;;;10.44;100.00;101750.88;5209985;28;20030;-88
2022/11/05 11:37:22;;;;;;;6.85;6.45;;;;;;;10.60;100.00;101794.50;5211069;28;20025;-89
2022/11/05 11:39:58;;;;;;;7.45;6.68;;;;;;;10.29;100.00;101717.31;5210796;28;20120;-89
2022/11/05 11:42:32;;;;;;;6.57;5.95;;;;;;;10.85;100.00;101786.16;5210733;28;20029;-89
2022/11/05 11:45:13;;;;;;;8.65;6.63;;;;;;;10.91;100.00;101786.03;5210398;28;20032;-89
2022/11/05 11:47:46;;;;;;;6.25;5.85;;;;;;;10.69;100.00;101720.13;5209745;28;20068;-88
2022/11/05 11:50:39;;;;;;;5.47;4.85;;;;;;;11.11;100.00;101775.69;5211739;28;20018;-88
2022/11/05 11:53:16;;;;;;;7.82;7.10;;;;;;;11.11;100.00;101774.84;5210873;28;20029;-89
2022/11/05 11:56:08;;;;;;;7.05;6.32;;;;;;;11.15;100.00;101774.16;5209791;28;20048;-89
2022/11/05 11:58:44;;;;;;;5.57;5.20;;;;;;;11.31;100.00;101766.34;5210205;28;20048;-88
2022/11/05 12:01:33;;;;;;;4.57;4.18;;;;;;;11.48;100.00;101759.97;5210195;28;20029;-89
2022/11/05 12:04:32;;;;;;;7.28;5.75;;;;;;;11.24;100.00;101685.38;5209317;28;20407;-88
2022/11/05 12:07:21;;;;;;;11.27;4.57;;;;;;;11.83;100.00;101761.75;5210544;28;20053;-88
2022/11/05 12:10:02;;;;;;;5.15;4.82;;;;;;;11.49;100.00;101698.59;5212765;28;20045;-88
2022/11/05 12:12:42;;;;;;;4.32;3.75;;;;;;;11.79;100.00;101712.72;5215351;28;20487;-87
2022/11/05 12:15:50;;;;;;;4.55;4.35;;;;;;;12.18;100.00;101753.44;5209961;28;20026;-90
2022/11/05 12:18:34;;;;;;;5.70;4.70;;;;;;;12.27;100.00;101751.16;5209393;28;20479;-90
2022/11/05 12:21:43;;;;;;;4.72;4.43;;;;;;;12.44;100.00;101743.84;5210497;28;20033;-89
2022/11/05 12:24:19;;;;;;;3.85;3.55;;;;;;;12.00;100.00;101694.09;5212664;28;20052;-88
2022/11/05 12:27:12;;;;;;;5.25;4.82;;;;;;;12.34;100.00;101744.50;5216686;28;20112;-87